Time;durP1;ratioP1;P1;durP2;ratioP2;P2;SDS_P1;SDS_P2;PMS_P1;PMS_P2;Temp;Humidity;BMP_temperature;BMP_pressure;BME280_temperature;BME280_humidity;BME280_pressure;Samples;Min_cycle;Max_cycle;Signal;HPM_P1;HPM_P2
2022/04/01 00:00:01;;;;;;;20.63;16.63;;;;;;;;;;5057927;28;20272;-82
2022/04/01 00:02:29;;;;;;;22.13;17.37;;;;;;;;;;5067382;28;20205;-82
2022/04/01 00:04:56;;;;;;;20.83;15.97;;;;;;;;;;5053848;28;20205;-81
2022/04/01 00:07:23;;;;;;;17.87;15.33;;;;;;;;;;5051906;28;20240;-81
2022/04/01 00:09:50;;;;;;;20.90;17.43;;;;;;;;;;5052466;28;20216;-82
2022/04/01 00:12:17;;;;;;;21.23;17.33;;;;;;;;;;5051820;28;20704;-81
2022/04/01 00:14:45;;;;;;;19.73;16.37;;;;;;;;;;5052539;28;20575;-81
2022/04/01 00:17:12;;;;;;;18.73;16.50;;;;;;;;;;5051924;28;20233;-81
2022/04/01 00:19:40;;;;;;;19.83;16.30;;;;;;;;;;5052573;28;20696;-81
2022/04/01 00:22:07;;;;;;;18.53;15.17;;;;;;;;;;5051944;28;20241;-81
2022/04/01 00:24:35;;;;;;;19.27;16.83;;;;;;;;;;5053168;28;20213;-82
2022/04/01 00:27:02;;;;;;;17.63;15.20;;;;;;;;;;5052218;28;20593;-82
2022/04/01 00:29:29;;;;;;;21.40;17.00;;;;;;;;;;5053127;28;20208;-82
2022/04/01 00:32:00;;;;;;;20.57;16.47;;;;;;;;;;5052569;28;20245;-81
2022/04/01 00:34:27;;;;;;;19.57;16.13;;;;;;;;;;5053606;28;20296;-81
2022/04/01 00:36:56;;;;;;;19.63;16.57;;;;;;;;;;5053239;28;20238;-82
2022/04/01 00:39:24;;;;;;;20.00;16.50;;;;;;;;;;5053892;28;20217;-82
2022/04/01 00:41:52;;;;;;;20.77;16.57;;;;;;;;;;5052894;28;20237;-82
2022/04/01 00:44:20;;;;;;;21.93;17.53;;;;;;;;;;5054207;28;20209;-82
2022/04/01 00:46:47;;;;;;;20.33;16.13;;;;;;;;;;5053493;28;20233;-82
2022/04/01 00:49:15;;;;;;;19.27;16.00;;;;;;;;;;5055151;28;20546;-81
2022/04/01 00:51:43;;;;;;;17.93;15.13;;;;;;;;;;5057289;28;20613;-81
2022/04/01 00:54:12;;;;;;;20.17;16.90;;;;;;;;;;5059029;28;20617;-80
2022/04/01 00:56:39;;;;;;;20.43;16.93;;;;;;;;;;5058082;28;20236;-81
2022/04/01 00:59:08;;;;;;;20.60;17.07;;;;;;;;;;5058973;28;20209;-81
2022/04/01 01:01:35;;;;;;;20.17;17.00;;;;;;;;;;5058388;28;20303;-81
2022/04/01 01:04:03;;;;;;;19.03;16.43;;;;;;;;;;5059494;28;20673;-80
2022/04/01 01:06:31;;;;;;;22.03;17.23;;;;;;;;;;5058116;28;20257;-81
2022/04/01 01:08:58;;;;;;;19.97;16.63;;;;;;;;;;5045032;28;20208;-81
2022/04/01 01:11:26;;;;;;;19.67;16.90;;;;;;;;;;5058611;28;20239;-81
2022/04/01 01:13:54;;;;;;;20.87;17.00;;;;;;;;;;5059556;28;20194;-82
2022/04/01 01:16:21;;;;;;;20.23;16.77;;;;;;;;;;5057854;28;20241;-81
2022/04/01 01:18:59;;;;;;;20.73;16.80;;;;;;;;;;5058609;28;20251;-81
2022/04/01 01:21:26;;;;;;;19.33;14.97;;;;;;;;;;5058608;28;20680;-81
2022/04/01 01:23:55;;;;;;;22.17;16.97;;;;;;;;;;5059558;28;20208;-82
2022/04/01 01:26:23;;;;;;;20.00;16.40;;;;;;;;;;5059156;28;20240;-82
2022/04/01 01:28:50;;;;;;;21.00;16.50;;;;;;;;;;5059792;28;20240;-81
2022/04/01 01:31:17;;;;;;;18.17;15.47;;;;;;;;;;5059010;28;20234;-82
2022/04/01 01:33:44;;;;;;;22.07;16.70;;;;;;;;;;5058938;28;20624;-81
2022/04/01 01:36:12;;;;;;;23.10;16.67;;;;;;;;;;5058995;28;20244;-82
2022/04/01 01:38:39;;;;;;;20.27;17.23;;;;;;;;;;5060281;28;20271;-82
2022/04/01 01:41:06;;;;;;;21.23;17.57;;;;;;;;;;5059656;28;20236;-82
2022/04/01 01:43:34;;;;;;;21.70;17.43;;;;;;;;;;5058950;28;20201;-82
2022/04/01 01:46:01;;;;;;;20.90;17.93;;;;;;;;;;5060734;28;20808;-82
2022/04/01 01:48:28;;;;;;;19.57;16.37;;;;;;;;;;5060886;28;20219;-81
2022/04/01 01:56:25;;;;;;;19.40;16.77;;;;;;;;;;5060439;28;20291;-81
2022/04/01 01:58:53;;;;;;;19.23;16.03;;;;;;;;;;5060235;28;20618;-81
2022/04/01 02:01:21;;;;;;;21.00;16.70;;;;;;;;;;5059422;28;20241;-82
2022/04/01 02:03:48;;;;;;;21.63;16.30;;;;;;;;;;5060646;28;20569;-82
2022/04/01 02:06:15;;;;;;;21.53;17.17;;;;;;;;;;5060049;28;20770;-82
2022/04/01 02:08:42;;;;;;;18.13;15.33;;;;;;;;;;5059517;28;20214;-82
2022/04/01 02:11:09;;;;;;;19.10;16.57;;;;;;;;;;5060410;28;20241;-81
2022/04/01 02:13:37;;;;;;;19.30;16.60;;;;;;;;;;5061651;28;20605;-82
2022/04/01 02:16:05;;;;;;;21.03;16.80;;;;;;;;;;5060449;28;20241;-81
2022/04/01 02:18:32;;;;;;;20.40;16.53;;;;;;;;;;5061068;28;20236;-81
2022/04/01 02:20:59;;;;;;;19.30;15.77;;;;;;;;;;5059311;28;20241;-82
2022/04/01 02:23:26;;;;;;;19.63;15.97;;;;;;;;;;5061492;28;20202;-82
2022/04/01 02:25:53;;;;;;;19.67;17.30;;;;;;;;;;5059796;28;20235;-82
2022/04/01 02:28:21;;;;;;;19.37;16.53;;;;;;;;;;5059155;28;20229;-82
2022/04/01 02:30:48;;;;;;;19.23;15.33;;;;;;;;;;5059992;28;20248;-81
2022/04/01 02:33:16;;;;;;;19.10;15.90;;;;;;;;;;5059681;28;20208;-82
2022/04/01 02:35:43;;;;;;;19.13;16.13;;;;;;;;;;5057066;28;20244;-83
2022/04/01 02:38:10;;;;;;;18.67;16.30;;;;;;;;;;5057762;28;20715;-82
2022/04/01 02:40:37;;;;;;;18.13;16.10;;;;;;;;;;5059570;28;20245;-81
2022/04/01 02:43:04;;;;;;;18.93;15.00;;;;;;;;;;5060362;28;20216;-82
2022/04/01 02:45:32;;;;;;;18.23;14.57;;;;;;;;;;5059376;28;20253;-82
2022/04/01 02:47:59;;;;;;;16.90;14.67;;;;;;;;;;5060805;28;20222;-81
2022/04/01 02:50:28;;;;;;;19.17;15.53;;;;;;;;;;5059780;28;20240;-82
2022/04/01 02:52:56;;;;;;;17.37;14.70;;;;;;;;;;5061345;28;20724;-81
2022/04/01 02:55:23;;;;;;;17.33;14.63;;;;;;;;;;5060441;28;20238;-82
2022/04/01 02:57:50;;;;;;;17.97;13.87;;;;;;;;;;5059524;28;20226;-82
2022/04/01 03:00:21;;;;;;;18.63;14.20;;;;;;;;;;5059966;28;20250;-82
2022/04/01 03:02:48;;;;;;;15.40;13.70;;;;;;;;;;5061208;28;20734;-81
2022/04/01 03:05:15;;;;;;;16.67;13.90;;;;;;;;;;5060231;28;20216;-82
2022/04/01 03:07:44;;;;;;;16.77;14.17;;;;;;;;;;5059710;28;20209;-82
2022/04/01 03:10:11;;;;;;;16.13;13.90;;;;;;;;;;5059201;28;20300;-82
2022/04/01 03:12:39;;;;;;;16.60;13.97;;;;;;;;;;5059750;28;20220;-82
2022/04/01 03:15:06;;;;;;;17.13;14.40;;;;;;;;;;5059568;28;20692;-82
2022/04/01 03:17:34;;;;;;;17.07;14.10;;;;;;;;;;5060418;28;20244;-82
2022/04/01 03:20:02;;;;;;;16.87;13.37;;;;;;;;;;5059984;28;20208;-82
2022/04/01 03:22:30;;;;;;;15.80;12.80;;;;;;;;;;5058615;28;20236;-81
2022/04/01 03:24:58;;;;;;;16.73;13.60;;;;;;;;;;5059524;28;20266;-81
2022/04/01 03:27:25;;;;;;;16.43;13.80;;;;;;;;;;5058177;28;20244;-82
2022/04/01 03:29:52;;;;;;;15.77;13.40;;;;;;;;;;5059110;28;20767;-82
2022/04/01 03:32:19;;;;;;;16.63;13.93;;;;;;;;;;5058736;28;20245;-82
2022/04/01 03:34:47;;;;;;;16.00;14.30;;;;;;;;;;5059756;28;20216;-82
2022/04/01 03:37:14;;;;;;;15.47;13.23;;;;;;;;;;5059543;28;20274;-82
2022/04/01 03:39:42;;;;;;;15.43;13.50;;;;;;;;;;5057914;28;20231;-81
2022/04/01 03:42:11;;;;;;;17.57;14.03;;;;;;;;;;5059174;28;20242;-82
2022/04/01 03:44:41;;;;;;;16.40;14.03;;;;;;;;;;5057494;28;20213;-82
2022/04/01 03:47:11;;;;;;;15.53;13.77;;;;;;;;;;5058476;28;20229;-82
2022/04/01 03:49:44;;;;;;;17.83;13.60;;;;;;;;;;5057889;28;20255;-82
2022/04/01 03:52:12;;;;;;;17.23;14.17;;;;;;;;;;5056606;28;20239;-82
2022/04/01 03:54:43;;;;;;;18.07;14.87;;;;;;;;;;5058517;28;20239;-82
2022/04/01 03:57:12;;;;;;;17.83;14.20;;;;;;;;;;5057883;28;20721;-82
2022/04/01 03:59:41;;;;;;;17.33;14.47;;;;;;;;;;5057349;28;20263;-82
2022/04/01 04:02:10;;;;;;;16.53;14.37;;;;;;;;;;5058753;28;20733;-82
2022/04/01 04:04:38;;;;;;;16.00;14.37;;;;;;;;;;5059999;28;20254;-82
2022/04/01 04:07:07;;;;;;;16.90;14.80;;;;;;;;;;5058088;28;20237;-81
2022/04/01 04:09:35;;;;;;;15.53;13.90;;;;;;;;;;5059244;28;20233;-82
2022/04/01 04:12:03;;;;;;;16.33;14.50;;;;;;;;;;5039864;28;20245;-80
2022/04/01 04:14:32;;;;;;;14.70;13.13;;;;;;;;;;5036667;28;20205;-79
2022/04/01 04:17:05;;;;;;;16.13;14.00;;;;;;;;;;5045201;28;20243;-80
2022/04/01 04:19:38;;;;;;;17.07;13.77;;;;;;;;;;5036884;28;20221;-80
2022/04/01 04:22:07;;;;;;;14.50;13.00;;;;;;;;;;5035573;28;20235;-80
2022/04/01 04:24:37;;;;;;;15.87;14.17;;;;;;;;;;5038671;28;20207;-80
2022/04/01 04:27:11;;;;;;;16.90;13.23;;;;;;;;;;5038344;28;20702;-81
2022/04/01 04:29:43;;;;;;;14.70;12.60;;;;;;;;;;5038915;28;20822;-83
2022/04/01 04:32:13;;;;;;;15.53;13.03;;;;;;;;;;5035214;28;20257;-84
2022/04/01 04:34:43;;;;;;;14.87;13.27;;;;;;;;;;5017020;28;20205;-83
2022/04/01 04:37:11;;;;;;;13.90;11.70;;;;;;;;;;5030458;28;20239;-84
2022/04/01 04:39:39;;;;;;;16.20;13.50;;;;;;;;;;5048716;28;20237;-85
2022/04/01 04:42:16;;;;;;;13.50;12.10;;;;;;;;;;5045336;28;20252;-86
2022/04/01 04:44:47;;;;;;;15.30;12.63;;;;;;;;;;5056312;28;20196;-85
2022/04/01 04:47:14;;;;;;;13.90;12.37;;;;;;;;;;5055657;28;20240;-85
2022/04/01 04:49:43;;;;;;;16.73;13.47;;;;;;;;;;5043593;28;20207;-83
2022/04/01 04:52:10;;;;;;;14.77;12.67;;;;;;;;;;5016099;28;20255;-83
2022/04/01 04:54:40;;;;;;;13.87;12.37;;;;;;;;;;5019757;28;20807;-83
2022/04/01 04:57:07;;;;;;;13.73;12.27;;;;;;;;;;5016586;28;20231;-84
2022/04/01 04:59:38;;;;;;;14.47;12.67;;;;;;;;;;5020331;28;20324;-84
2022/04/01 05:02:07;;;;;;;14.13;12.33;;;;;;;;;;5026829;28;20769;-81
2022/04/01 05:04:42;;;;;;;14.60;12.47;;;;;;;;;;5058495;28;20203;-80
2022/04/01 05:07:14;;;;;;;13.50;12.00;;;;;;;;;;5044748;28;20292;-80
2022/04/01 05:09:47;;;;;;;16.97;12.83;;;;;;;;;;5037318;28;20198;-80
2022/04/01 05:12:21;;;;;;;14.53;12.60;;;;;;;;;;5034163;28;20242;-83
2022/04/01 05:14:55;;;;;;;14.07;12.23;;;;;;;;;;5019040;28;20213;-80
2022/04/01 05:17:27;;;;;;;13.90;12.00;;;;;;;;;;5039575;28;20231;-81
2022/04/01 05:19:58;;;;;;;12.67;11.23;;;;;;;;;;5062681;28;20217;-82
2022/04/01 05:22:32;;;;;;;14.07;12.30;;;;;;;;;;5067970;28;20241;-81
2022/04/01 05:25:02;;;;;;;12.57;11.27;;;;;;;;;;5062459;28;20209;-82
2022/04/01 05:27:30;;;;;;;14.00;12.53;;;;;;;;;;5034377;28;20230;-81
2022/04/01 05:30:02;;;;;;;14.30;12.37;;;;;;;;;;5035166;28;20253;-82
2022/04/01 05:32:33;;;;;;;13.57;12.17;;;;;;;;;;5035557;28;20296;-81
2022/04/01 05:35:01;;;;;;;14.70;12.57;;;;;;;;;;5036177;28;20211;-81
2022/04/01 05:37:29;;;;;;;13.53;12.07;;;;;;;;;;5027971;28;20240;-81
2022/04/01 05:39:57;;;;;;;16.50;12.07;;;;;;;;;;5016621;28;20228;-82
2022/04/01 05:42:27;;;;;;;12.93;11.57;;;;;;;;;;5017130;28;20244;-84
2022/04/01 05:44:55;;;;;;;13.50;12.10;;;;;;;;;;5016824;28;20243;-85
2022/04/01 05:47:24;;;;;;;13.23;11.20;;;;;;;;;;5018141;28;20237;-85
2022/04/01 05:49:54;;;;;;;13.10;11.70;;;;;;;;;;5017135;28;20207;-85
2022/04/01 05:52:23;;;;;;;13.07;11.13;;;;;;;;;;5015885;28;20246;-85
2022/04/01 05:54:50;;;;;;;13.17;10.93;;;;;;;;;;5016510;28;20224;-85
2022/04/01 05:57:19;;;;;;;13.77;10.37;;;;;;;;;;5015425;28;20251;-86
2022/04/01 05:59:46;;;;;;;11.30;10.10;;;;;;;;;;5016905;28;20731;-85
2022/04/01 06:02:23;;;;;;;11.77;10.33;;;;;;;;;;5026550;28;20304;-85
2022/04/01 06:04:59;;;;;;;13.07;10.10;;;;;;;;;;5056421;28;20946;-83
2022/04/01 06:07:34;;;;;;;12.40;10.60;;;;;;;;;;5055941;28;20236;-85
2022/04/01 06:10:05;;;;;;;12.17;10.90;;;;;;;;;;5055991;28;20185;-83
2022/04/01 06:12:39;;;;;;;10.23;9.17;;;;;;;;;;5056662;28;20225;-84
2022/04/01 06:15:11;;;;;;;10.40;9.40;;;;;;;;;;5039791;28;20677;-84
2022/04/01 06:17:42;;;;;;;9.73;8.83;;;;;;;;;;5029987;28;20230;-84
2022/04/01 06:20:14;;;;;;;10.00;9.00;;;;;;;;;;5035983;28;20240;-84
2022/04/01 06:22:49;;;;;;;10.87;9.77;;;;;;;;;;5040384;28;20851;-85
2022/04/01 06:25:20;;;;;;;10.67;9.63;;;;;;;;;;5044399;28;20648;-84
2022/04/01 06:27:48;;;;;;;9.57;8.67;;;;;;;;;;5040208;28;20206;-83
2022/04/01 06:30:15;;;;;;;10.43;9.27;;;;;;;;;;5039180;28;20202;-83
2022/04/01 06:32:47;;;;;;;9.73;8.83;;;;;;;;;;5039829;28;20183;-83
2022/04/01 06:35:19;;;;;;;9.80;8.80;;;;;;;;;;5046615;28;20206;-85
2022/04/01 06:37:51;;;;;;;8.90;8.10;;;;;;;;;;5036390;28;20218;-84
2022/04/01 06:40:23;;;;;;;10.17;9.17;;;;;;;;;;5035613;28;20220;-84
2022/04/01 06:42:53;;;;;;;9.90;8.90;;;;;;;;;;5035540;28;20183;-83
2022/04/01 06:45:21;;;;;;;10.40;9.40;;;;;;;;;;5035947;28;20209;-84
2022/04/01 06:47:48;;;;;;;10.90;9.30;;;;;;;;;;5035458;28;20548;-84
2022/04/01 06:50:16;;;;;;;12.37;10.03;;;;;;;;;;5035108;28;20219;-84
2022/04/01 06:52:45;;;;;;;10.37;9.20;;;;;;;;;;5036143;28;20646;-84
2022/04/01 06:55:13;;;;;;;11.60;9.50;;;;;;;;;;5036013;28;20217;-84
2022/04/01 06:57:40;;;;;;;10.43;9.43;;;;;;;;;;5035862;28;20211;-84
2022/04/01 07:00:08;;;;;;;12.53;9.90;;;;;;;;;;5036676;28;20219;-84
2022/04/01 07:02:35;;;;;;;11.63;9.87;;;;;;;;;;5036709;28;20277;-84
2022/04/01 07:05:03;;;;;;;12.60;10.23;;;;;;;;;;5036762;28;20245;-83
2022/04/01 07:07:30;;;;;;;12.27;10.20;;;;;;;;;;5036013;28;20217;-84
2022/04/01 07:09:58;;;;;;;13.07;9.77;;;;;;;;;;5037046;28;20217;-84
2022/04/01 07:12:25;;;;;;;12.10;9.27;;;;;;;;;;5036792;28;20284;-84
2022/04/01 07:14:52;;;;;;;11.03;9.60;;;;;;;;;;5036926;28;20219;-84
2022/04/01 07:17:19;;;;;;;12.30;10.40;;;;;;;;;;5035733;28;20238;-84
2022/04/01 07:19:47;;;;;;;14.73;10.50;;;;;;;;;;5035476;28;20233;-84
2022/04/01 07:22:14;;;;;;;12.33;9.47;;;;;;;;;;5037069;28;20297;-84
2022/04/01 07:24:42;;;;;;;11.40;10.20;;;;;;;;;;5035342;28;20208;-84
2022/04/01 07:27:11;;;;;;;12.87;10.20;;;;;;;;;;5034181;28;20243;-84
2022/04/01 07:29:38;;;;;;;12.13;10.63;;;;;;;;;;5035342;28;20384;-85
2022/04/01 07:34:51;;;;;;;13.57;10.77;;;;;;;;;;5036374;28;20279;-84
2022/04/01 07:37:20;;;;;;;11.93;9.87;;;;;;;;;;5034192;28;20235;-84
2022/04/01 07:39:47;;;;;;;13.17;10.63;;;;;;;;;;5035499;28;20580;-84
2022/04/01 07:42:16;;;;;;;12.87;10.53;;;;;;;;;;5034749;28;20593;-83
2022/04/01 07:44:43;;;;;;;12.17;10.73;;;;;;;;;;5036105;28;20610;-83
2022/04/01 07:47:10;;;;;;;13.73;10.70;;;;;;;;;;5034983;28;20236;-83
2022/04/01 07:49:38;;;;;;;11.93;10.40;;;;;;;;;;5035389;28;20183;-83
2022/04/01 07:52:07;;;;;;;12.40;10.77;;;;;;;;;;5059533;22;20252;-80
2022/04/01 07:54:35;;;;;;;11.40;10.17;;;;;;;;;;5085714;28;20281;-78
2022/04/01 07:57:02;;;;;;;12.57;10.13;;;;;;;;;;5092166;28;20258;-78
2022/04/01 07:59:30;;;;;;;13.17;10.83;;;;;;;;;;5092311;28;20708;-78
2022/04/01 08:01:58;;;;;;;14.10;10.80;;;;;;;;;;5092451;28;20312;-78
2022/04/01 08:04:26;;;;;;;13.10;10.93;;;;;;;;;;5081324;28;20204;-78
2022/04/01 08:06:54;;;;;;;12.70;10.80;;;;;;;;;;5070451;28;20319;-78
2022/04/01 08:09:21;;;;;;;12.27;10.97;;;;;;;;;;5072221;28;20198;-78
2022/04/01 08:11:48;;;;;;;12.27;10.53;;;;;;;;;;5071144;28;20243;-78
2022/04/01 08:14:17;;;;;;;12.17;10.67;;;;;;;;;;5071615;28;20204;-78
2022/04/01 08:16:46;;;;;;;12.23;10.57;;;;;;;;;;5070700;28;20261;-79
2022/04/01 08:19:13;;;;;;;13.17;10.33;;;;;;;;;;5071373;28;20296;-79
2022/04/01 08:21:40;;;;;;;12.63;10.17;;;;;;;;;;5070876;28;20294;-77
2022/04/01 08:24:08;;;;;;;13.20;10.77;;;;;;;;;;5071860;28;20211;-79
2022/04/01 08:26:35;;;;;;;11.73;9.60;;;;;;;;;;5071366;28;20231;-79
2022/04/01 08:29:03;;;;;;;13.20;9.40;;;;;;;;;;5073792;28;20300;-78
2022/04/01 08:31:33;;;;;;;11.90;10.17;;;;;;;;;;5071919;28;20320;-79
2022/04/01 08:34:01;;;;;;;10.93;9.73;;;;;;;;;;5073227;28;20199;-79
2022/04/01 08:36:28;;;;;;;10.30;9.03;;;;;;;;;;5071756;28;20240;-78
2022/04/01 08:38:55;;;;;;;10.83;9.60;;;;;;;;;;5073276;28;20218;-80
2022/04/01 08:41:23;;;;;;;10.23;8.53;;;;;;;;;;5075659;28;20236;-79
2022/04/01 08:43:51;;;;;;;9.97;8.57;;;;;;;;;;5072557;28;20219;-79
2022/04/01 08:46:19;;;;;;;10.17;8.57;;;;;;;;;;5070912;28;20232;-80
2022/04/01 08:48:46;;;;;;;10.00;8.33;;;;;;;;;;5071467;28;20213;-78
2022/04/01 08:51:14;;;;;;;9.93;8.93;;;;;;;;;;5070349;28;20231;-78
2022/04/01 08:53:44;;;;;;;10.70;8.73;;;;;;;;;;5070707;28;20236;-77
2022/04/01 08:56:12;;;;;;;9.33;8.17;;;;;;;;;;5070228;28;20311;-78
2022/04/01 08:58:39;;;;;;;9.03;8.07;;;;;;;;;;5070812;28;20211;-79
2022/04/01 09:01:06;;;;;;;8.50;7.60;;;;;;;;;;5070745;28;20240;-78
2022/04/01 09:03:34;;;;;;;9.30;7.97;;;;;;;;;;5072487;28;20229;-79
2022/04/01 09:06:03;;;;;;;9.50;8.47;;;;;;;;;;5071690;28;20248;-77
2022/04/01 09:08:35;;;;;;;9.50;8.57;;;;;;;;;;5071466;28;20405;-78
2022/04/01 09:11:03;;;;;;;10.30;7.40;;;;;;;;;;5071969;28;20238;-78
2022/04/01 09:13:32;;;;;;;8.97;7.33;;;;;;;;;;5074784;28;20225;-79
2022/04/01 09:15:59;;;;;;;9.53;8.20;;;;;;;;;;5076283;28;20287;-79
2022/04/01 09:18:40;;;;;;;9.37;7.23;;;;;;;;;;5074709;28;20189;-79
2022/04/01 09:21:07;;;;;;;8.00;7.17;;;;;;;;;;5074060;28;20243;-79
2022/04/01 09:23:36;;;;;;;11.03;7.23;;;;;;;;;;5075241;28;20611;-79
2022/04/01 09:26:03;;;;;;;6.90;6.00;;;;;;;;;;5087041;28;20232;-79
2022/04/01 09:28:31;;;;;;;7.47;5.67;;;;;;;;;;5074275;28;20200;-80
2022/04/01 09:30:59;;;;;;;8.73;7.37;;;;;;;;;;5073182;28;20229;-79
2022/04/01 09:33:30;;;;;;;8.10;7.10;;;;;;;;;;5075018;28;20312;-79
2022/04/01 09:36:03;;;;;;;9.30;6.97;;;;;;;;;;5073723;28;20234;-79
2022/04/01 09:38:30;;;;;;;7.27;6.50;;;;;;;;;;5072645;28;20221;-81
2022/04/01 09:41:02;;;;;;;9.27;7.67;;;;;;;;;;5073597;28;20247;-79
2022/04/01 09:43:30;;;;;;;7.50;6.70;;;;;;;;;;5074341;28;20779;-77
2022/04/01 09:46:04;;;;;;;9.37;7.40;;;;;;;;;;5074051;28;20725;-76
2022/04/01 09:48:39;;;;;;;7.63;6.83;;;;;;;;;;5073754;28;20204;-77
2022/04/01 09:51:06;;;;;;;8.73;7.00;;;;;;;;;;5073904;28;20533;-79
2022/04/01 09:53:35;;;;;;;8.80;6.80;;;;;;;;;;5074955;28;20239;-77
2022/04/01 09:56:03;;;;;;;7.77;6.93;;;;;;;;;;5072809;28;20240;-78
2022/04/01 09:58:30;;;;;;;6.93;6.27;;;;;;;;;;5075695;28;20211;-79
2022/04/01 10:00:59;;;;;;;8.30;6.53;;;;;;;;;;5074819;28;20293;-79
2022/04/01 10:03:26;;;;;;;8.53;5.57;;;;;;;;;;5083407;28;20220;-78
2022/04/01 10:05:54;;;;;;;8.40;6.53;;;;;;;;;;5074524;28;20230;-78
2022/04/01 10:08:24;;;;;;;7.63;6.30;;;;;;;;;;5075013;28;20295;-78
2022/04/01 10:10:51;;;;;;;6.50;5.90;;;;;;;;;;5073935;28;20235;-78
2022/04/01 10:13:22;;;;;;;9.00;6.27;;;;;;;;;;5075499;28;20216;-78
2022/04/01 10:15:50;;;;;;;7.00;5.33;;;;;;;;;;5063951;28;20240;-79
2022/04/01 10:18:20;;;;;;;7.17;6.37;;;;;;;;;;5074727;28;20212;-78
2022/04/01 10:20:48;;;;;;;8.80;6.10;;;;;;;;;;5072487;28;20241;-79
2022/04/01 10:23:16;;;;;;;7.10;6.40;;;;;;;;;;5073603;28;20316;-79
2022/04/01 10:25:48;;;;;;;7.20;6.17;;;;;;;;;;5069605;28;20236;-78
2022/04/01 10:28:16;;;;;;;6.23;5.63;;;;;;;;;;5073027;28;20258;-79
2022/04/01 10:30:51;;;;;;;6.17;5.57;;;;;;;;;;5073465;28;20731;-79
2022/04/01 10:33:22;;;;;;;7.47;6.27;;;;;;;;;;5073953;28;20229;-78
2022/04/01 10:35:49;;;;;;;6.33;5.40;;;;;;;;;;5073249;28;20666;-79
2022/04/01 10:38:18;;;;;;;5.87;5.27;;;;;;;;;;5073009;28;20209;-78
2022/04/01 10:40:46;;;;;;;5.43;4.93;;;;;;;;;;5072095;28;20240;-78
2022/04/01 10:43:15;;;;;;;7.33;6.07;;;;;;;;;;5072917;28;20221;-78
2022/04/01 10:45:43;;;;;;;6.73;5.63;;;;;;;;;;5072400;28;20243;-79
2022/04/01 10:53:58;;;;;;;6.20;5.60;;;;;;;;;;5073042;28;20323;-78
2022/04/01 10:56:32;;;;;;;7.53;6.40;;;;;;;;;;5071833;28;20282;-78
2022/04/01 10:59:14;;;;;;;5.80;4.90;;;;;;;;;;5074401;28;20208;-79
2022/04/01 11:01:44;;;;;;;5.83;5.30;;;;;;;;;;5074982;28;20237;-79
2022/04/01 11:04:29;;;;;;;6.10;5.47;;;;;;;;;;5075883;28;20228;-79
2022/04/01 11:06:57;;;;;;;6.60;5.80;;;;;;;;;;5074222;28;20287;-79
2022/04/01 11:09:37;;;;;;;5.77;4.83;;;;;;;;;;5072441;28;20206;-78
2022/04/01 11:12:23;;;;;;;6.53;5.93;;;;;;;;;;5071637;28;20239;-79
2022/04/01 11:15:09;;;;;;;6.20;5.60;;;;;;;;;;5072307;28;20657;-79
2022/04/01 11:17:51;;;;;;;7.17;6.00;;;;;;;;;;5071890;28;20277;-78
2022/04/01 11:20:27;;;;;;;7.33;5.57;;;;;;;;;;5071003;28;20227;-78
2022/04/01 11:23:01;;;;;;;5.27;4.77;;;;;;;;;;5072145;28;20229;-78
2022/04/01 11:25:50;;;;;;;6.47;5.77;;;;;;;;;;5066361;28;20237;-78
2022/04/01 11:28:18;;;;;;;5.37;4.83;;;;;;;;;;5072546;28;20666;-79
2022/04/01 11:30:45;;;;;;;5.80;5.30;;;;;;;;;;5070943;28;20244;-79
2022/04/01 11:33:13;;;;;;;6.10;5.50;;;;;;;;;;5072258;28;20221;-78
2022/04/01 11:35:44;;;;;;;5.70;5.20;;;;;;;;;;5070346;28;20655;-78
2022/04/01 11:38:13;;;;;;;5.90;5.10;;;;;;;;;;5072570;28;20287;-78
2022/04/01 11:40:41;;;;;;;6.30;5.70;;;;;;;;;;5071396;28;20245;-79
2022/04/01 11:43:09;;;;;;;5.40;5.00;;;;;;;;;;5072144;28;20247;-79
2022/04/01 11:45:37;;;;;;;6.57;5.90;;;;;;;;;;5072160;28;20340;-78
2022/04/01 11:48:16;;;;;;;7.20;5.80;;;;;;;;;;5071815;28;20212;-78
2022/04/01 11:50:45;;;;;;;7.10;6.50;;;;;;;;;;5071526;28;20240;-78
2022/04/01 11:53:19;;;;;;;6.03;5.43;;;;;;;;;;5071317;28;20236;-79
2022/04/01 11:55:46;;;;;;;7.33;6.60;;;;;;;;;;5070916;28;20244;-79
2022/04/01 11:58:13;;;;;;;5.50;5.00;;;;;;;;;;5071351;28;20203;-78
2022/04/01 12:00:40;;;;;;;6.17;5.57;;;;;;;;;;5071215;28;20243;-78
2022/04/01 12:03:07;;;;;;;6.20;5.70;;;;;;;;;;5071811;28;20232;-78
2022/04/01 12:05:35;;;;;;;6.13;5.43;;;;;;;;;;5067098;28;20246;-78
2022/04/01 12:10:52;;;;;;;8.40;6.13;;;;;;;;;;5071448;28;20238;-78
2022/04/01 12:13:19;;;;;;;6.70;6.10;;;;;;;;;;5071492;28;20648;-78
2022/04/01 12:15:47;;;;;;;6.20;5.60;;;;;;;;;;5070499;28;20235;-79
2022/04/01 12:18:15;;;;;;;7.50;6.73;;;;;;;;;;5071791;28;20273;-79
2022/04/01 12:20:42;;;;;;;4.60;4.20;;;;;;;;;;5063016;28;20243;-77
2022/04/01 12:23:11;;;;;;;6.83;6.13;;;;;;;;;;5071083;28;20568;-78
2022/04/01 12:25:39;;;;;;;6.13;5.53;;;;;;;;;;5066638;28;20232;-79
2022/04/01 12:28:08;;;;;;;5.40;4.90;;;;;;;;;;5072285;28;20193;-80
2022/04/01 12:30:37;;;;;;;6.60;5.93;;;;;;;;;;5065693;28;20259;-81
2022/04/01 12:33:06;;;;;;;6.13;5.53;;;;;;;;;;5073038;28;20263;-79
2022/04/01 12:35:33;;;;;;;6.40;5.70;;;;;;;;;;5071948;28;20232;-81
2022/04/01 12:38:07;;;;;;;6.47;5.87;;;;;;;;;;5072268;28;20291;-79
2022/04/01 12:40:36;;;;;;;6.97;5.70;;;;;;;;;;5071434;28;20327;-79
2022/04/01 12:43:03;;;;;;;6.50;5.90;;;;;;;;;;5070810;28;20225;-80
2022/04/01 12:45:30;;;;;;;6.50;5.90;;;;;;;;;;5076446;28;20226;-80
2022/04/01 12:47:57;;;;;;;7.83;5.43;;;;;;;;;;5077484;28;20280;-79
2022/04/01 12:50:34;;;;;;;5.87;5.27;;;;;;;;;;5077548;28;20235;-80
2022/04/01 12:53:12;;;;;;;6.67;5.77;;;;;;;;;;5082669;28;20242;-80
2022/04/01 12:55:41;;;;;;;5.70;5.17;;;;;;;;;;5080639;28;20429;-79
2022/04/01 12:58:12;;;;;;;7.13;5.63;;;;;;;;;;5074376;28;20208;-80
2022/04/01 13:00:39;;;;;;;5.83;5.33;;;;;;;;;;5067015;28;20243;-80
2022/04/01 13:03:09;;;;;;;9.50;6.30;;;;;;;;;;5076086;28;20245;-79
2022/04/01 13:05:37;;;;;;;6.13;5.07;;;;;;;;;;5075382;28;20241;-80
2022/04/01 13:08:09;;;;;;;7.87;5.37;;;;;;;;;;5071645;28;20239;-79
2022/04/01 13:10:36;;;;;;;6.97;5.97;;;;;;;;;;5065031;28;20235;-79
2022/04/01 13:13:17;;;;;;;5.90;5.33;;;;;;;;;;5076528;28;20278;-78
2022/04/01 13:15:50;;;;;;;6.20;5.67;;;;;;;;;;5074362;28;20263;-79
2022/04/01 13:18:23;;;;;;;8.13;5.80;;;;;;;;;;5075307;28;20195;-79
2022/04/01 13:20:50;;;;;;;5.77;5.27;;;;;;;;;;5074772;28;20664;-79
2022/04/01 13:23:17;;;;;;;7.20;6.50;;;;;;;;;;5069210;28;20227;-80
2022/04/01 13:25:44;;;;;;;7.93;5.90;;;;;;;;;;5057611;28;20236;-78
2022/04/01 13:28:14;;;;;;;7.00;6.23;;;;;;;;;;5070300;28;20212;-79
2022/04/01 13:30:41;;;;;;;7.17;6.47;;;;;;;;;;5071684;28;20243;-79
2022/04/01 13:33:08;;;;;;;6.87;6.27;;;;;;;;;;5066017;28;20231;-78
2022/04/01 13:35:35;;;;;;;7.10;5.53;;;;;;;;;;5073443;28;20328;-78
2022/04/01 13:38:03;;;;;;;7.40;6.30;;;;;;;;;;5073085;28;20699;-79
2022/04/01 13:40:30;;;;;;;6.63;5.97;;;;;;;;;;5065421;28;20233;-78
2022/04/01 13:42:57;;;;;;;5.57;5.07;;;;;;;;;;5076027;28;20229;-79
2022/04/01 13:45:26;;;;;;;7.23;6.07;;;;;;;;;;5072782;28;20236;-76
2022/04/01 13:47:54;;;;;;;10.17;6.10;;;;;;;;;;5073444;28;20210;-79
2022/04/01 13:50:21;;;;;;;9.10;5.73;;;;;;;;;;5073414;28;20241;-78
2022/04/01 13:52:48;;;;;;;4.97;4.57;;;;;;;;;;5073756;28;20244;-77
2022/04/01 13:55:15;;;;;;;9.50;5.27;;;;;;;;;;5071616;28;20201;-78
2022/04/01 13:57:42;;;;;;;5.43;4.93;;;;;;;;;;5061794;28;20224;-77
2022/04/01 14:00:10;;;;;;;5.93;5.33;;;;;;;;;;5071397;28;20201;-79
2022/04/01 14:02:40;;;;;;;6.47;5.87;;;;;;;;;;5068115;28;20246;-78
2022/04/01 14:05:07;;;;;;;6.70;6.10;;;;;;;;;;5072429;28;20214;-78
2022/04/01 14:07:35;;;;;;;6.23;5.63;;;;;;;;;;5071797;28;20214;-79
2022/04/01 14:10:02;;;;;;;6.57;5.97;;;;;;;;;;5070379;28;20226;-80
2022/04/01 14:12:29;;;;;;;5.67;5.17;;;;;;;;;;5072664;28;20231;-80
2022/04/01 14:14:56;;;;;;;5.70;5.20;;;;;;;;;;5070010;28;20279;-79
2022/04/01 14:17:23;;;;;;;6.23;5.67;;;;;;;;;;5065104;28;20253;-78
2022/04/01 14:19:52;;;;;;;7.27;6.57;;;;;;;;;;5070423;28;20288;-76
2022/04/01 14:22:19;;;;;;;6.03;5.43;;;;;;;;;;5068780;28;20280;-77
2022/04/01 14:24:46;;;;;;;5.67;5.17;;;;;;;;;;5071288;28;20296;-77
2022/04/01 14:27:14;;;;;;;6.07;5.47;;;;;;;;;;5069863;28;20694;-78
2022/04/01 14:32:31;;;;;;;9.17;6.70;;;;;;;;;;5056556;28;20227;-78
2022/04/01 14:35:00;;;;;;;7.53;6.70;;;;;;;;;;5071539;28;20271;-79
2022/04/01 14:37:27;;;;;;;6.73;6.10;;;;;;;;;;5072339;28;20604;-78
2022/04/01 14:39:54;;;;;;;7.40;6.50;;;;;;;;;;5073185;28;20212;-78
2022/04/01 14:42:21;;;;;;;6.67;6.07;;;;;;;;;;5073037;28;20244;-79
2022/04/01 14:44:48;;;;;;;6.60;6.00;;;;;;;;;;5073151;28;20206;-77
2022/04/01 14:47:15;;;;;;;6.97;6.27;;;;;;;;;;5072183;28;20227;-80
2022/04/01 14:49:42;;;;;;;7.70;6.60;;;;;;;;;;5072608;28;20209;-78
2022/04/01 14:52:10;;;;;;;7.60;6.83;;;;;;;;;;5072168;28;20245;-78
2022/04/01 14:54:37;;;;;;;6.50;5.90;;;;;;;;;;5072248;28;20205;-78
2022/04/01 14:57:05;;;;;;;6.73;6.03;;;;;;;;;;5071856;28;20256;-78